createdAt,value
2022-12-01T00:01:31.143Z,88.75
2022-12-01T00:03:59.504Z,87.85
2022-12-01T00:06:27.531Z,97.15
2022-12-01T00:09:19.278Z,88.07
2022-12-01T00:11:49.582Z,88.00
2022-12-01T00:14:17.965Z,87.57
2022-12-01T00:16:46.151Z,88.90
2022-12-01T00:19:14.666Z,89.05
2022-12-01T00:21:42.677Z,94.65
2022-12-01T00:24:11.390Z,112.75
2022-12-01T00:26:40.398Z,105.85
2022-12-01T00:29:10.087Z,88.57
2022-12-01T00:31:38.427Z,95.07
2022-12-01T00:34:11.026Z,90.15
2022-12-01T00:36:40.504Z,90.20
2022-12-01T00:39:09.075Z,85.35
2022-12-01T00:41:37.410Z,87.90
2022-12-01T00:44:06.078Z,83.22
2022-12-01T00:46:35.724Z,96.35
2022-12-01T00:49:04.382Z,93.93
2022-12-01T00:51:32.959Z,84.30
2022-12-01T00:54:01.008Z,97.63
2022-12-01T00:56:29.393Z,87.60
2022-12-01T00:58:57.475Z,98.28
2022-12-01T01:01:25.983Z,100.88
2022-12-01T01:03:55.591Z,98.30
2022-12-01T01:06:23.944Z,96.65
2022-12-01T01:08:52.082Z,92.60
2022-12-01T01:11:20.437Z,95.13
2022-12-01T01:13:48.515Z,95.50
2022-12-01T01:16:20.127Z,101.38
2022-12-01T01:18:49.235Z,96.70
2022-12-01T01:21:20.995Z,108.65
2022-12-01T01:23:49.118Z,116.75
2022-12-01T01:26:19.602Z,112.80
2022-12-01T01:28:48.478Z,105.90
2022-12-01T01:31:19.233Z,109.78
2022-12-01T01:33:47.522Z,116.13
2022-12-01T01:36:18.840Z,114.10
2022-12-01T01:38:47.292Z,116.57
2022-12-01T01:41:15.621Z,109.10
2022-12-01T01:43:46.701Z,109.65
2022-12-01T01:46:18.081Z,112.60
2022-12-01T01:48:49.231Z,114.88
2022-12-01T01:51:22.815Z,107.45
2022-12-01T01:53:54.538Z,109.13
2022-12-01T01:56:23.625Z,113.10
2022-12-01T01:58:53.332Z,108.97
2022-12-01T02:01:21.717Z,105.47
2022-12-01T02:03:53.329Z,103.38
2022-12-01T02:06:24.651Z,102.53
2022-12-01T02:08:52.768Z,103.00
2022-12-01T02:11:51.100Z,103.90
2022-12-01T02:14:34.580Z,108.03
2022-12-01T02:17:10.990Z,99.85
2022-12-01T02:19:56.413Z,97.32
2022-12-01T02:22:36.440Z,94.97
2022-12-01T02:25:20.256Z,105.13
2022-12-01T02:28:17.129Z,96.10
2022-12-01T02:30:49.755Z,94.70
2022-12-01T02:33:25.251Z,98.93
2022-12-01T02:36:01.087Z,100.18
2022-12-01T02:38:32.320Z,92.38
2022-12-01T02:41:08.621Z,94.32
2022-12-01T02:43:45.217Z,92.32
2022-12-01T02:46:19.183Z,94.25
2022-12-01T02:48:52.199Z,85.53
2022-12-01T02:51:23.998Z,92.75
2022-12-01T02:53:53.676Z,92.88
2022-12-01T02:56:23.165Z,88.22
2022-12-01T02:58:51.437Z,88.47
2022-12-01T03:01:43.666Z,90.75
2022-12-01T03:07:04.959Z,77.53
2022-12-01T03:09:47.946Z,80.05
2022-12-01T03:12:24.500Z,79.55
2022-12-01T03:15:03.271Z,88.72
2022-12-01T03:17:39.912Z,92.25
2022-12-01T03:20:13.872Z,88.40
2022-12-01T03:22:45.526Z,85.18
2022-12-01T03:25:16.604Z,85.35
2022-12-01T03:28:13.828Z,85.63
2022-12-01T03:30:38.758Z,80.22
2022-12-01T03:33:13.583Z,83.80
2022-12-01T03:35:47.348Z,85.72
2022-12-01T03:38:21.817Z,79.75
2022-12-01T03:40:52.145Z,83.03
2022-12-01T03:43:23.291Z,90.10
2022-12-01T03:45:57.145Z,65.25
2022-12-01T03:48:27.704Z,83.93
2022-12-01T03:51:05.650Z,85.05
2022-12-01T03:53:39.823Z,86.93
2022-12-01T03:56:09.045Z,82.70
2022-12-01T03:58:41.839Z,94.97
2022-12-01T04:01:10.520Z,92.10
2022-12-01T04:03:39.823Z,92.22
2022-12-01T04:06:08.222Z,85.68
2022-12-01T04:08:37.454Z,93.47
2022-12-01T04:11:32.282Z,88.28
2022-12-01T04:13:59.680Z,92.30
2022-12-01T04:16:27.793Z,92.43
2022-12-01T04:18:56.926Z,91.38
2022-12-01T04:21:25.020Z,84.82
2022-12-01T04:24:01.704Z,85.10
2022-12-01T04:26:32.091Z,83.90
2022-12-01T04:29:00.165Z,82.00
2022-12-01T04:31:28.293Z,95.68
2022-12-01T04:33:58.873Z,84.60
2022-12-01T04:36:28.369Z,91.25
2022-12-01T04:38:56.132Z,89.75
2022-12-01T04:41:24.324Z,85.00
2022-12-01T04:43:53.671Z,90.80
2022-12-01T04:46:22.012Z,78.18
2022-12-01T04:48:50.335Z,75.90
2022-12-01T04:51:21.315Z,82.05
2022-12-01T04:53:49.137Z,74.68
2022-12-01T04:56:17.231Z,74.97
2022-12-01T04:58:45.460Z,73.38
2022-12-01T05:01:15.814Z,76.43
2022-12-01T05:03:46.732Z,77.13
2022-12-01T05:06:16.645Z,75.72
2022-12-01T05:08:45.804Z,66.47
2022-12-01T05:11:14.685Z,73.57
2022-12-01T05:13:44.696Z,72.10
2022-12-01T05:16:15.594Z,68.80
2022-12-01T05:18:43.702Z,67.57
2022-12-01T05:21:11.463Z,70.60
2022-12-01T05:23:39.610Z,69.00
2022-12-01T05:26:10.187Z,69.97
2022-12-01T05:28:40.834Z,62.22
2022-12-01T05:31:09.313Z,65.45
2022-12-01T05:33:37.164Z,71.35
2022-12-01T05:36:05.717Z,68.55
2022-12-01T05:38:33.703Z,67.18
2022-12-01T05:41:01.684Z,74.50
2022-12-01T05:43:30.851Z,64.93
2022-12-01T05:45:59.490Z,63.13
2022-12-01T05:48:27.488Z,63.35
2022-12-01T05:50:55.814Z,70.03
2022-12-01T05:53:23.996Z,59.53
2022-12-01T05:55:53.572Z,58.53
2022-12-01T05:58:21.718Z,61.60
2022-12-01T06:00:51.335Z,50.92
2022-12-01T06:03:19.423Z,50.00
2022-12-01T06:05:47.733Z,54.00
2022-12-01T06:08:15.804Z,47.08
2022-12-01T06:10:43.855Z,44.25
2022-12-01T06:13:11.841Z,51.53
2022-12-01T06:15:40.392Z,50.00
2022-12-01T06:18:09.936Z,51.55
2022-12-01T06:20:38.330Z,50.55
2022-12-01T06:23:06.536Z,48.38
2022-12-01T06:25:34.619Z,49.05
2022-12-01T06:28:02.802Z,37.90
2022-12-01T06:30:31.172Z,45.70
2022-12-01T06:32:59.080Z,46.95
2022-12-01T06:35:28.586Z,45.35
2022-12-01T06:37:56.643Z,47.35
2022-12-01T06:40:25.084Z,40.63
2022-12-01T06:42:52.924Z,35.67
2022-12-01T06:45:21.295Z,39.67
2022-12-01T06:47:49.019Z,34.83
2022-12-01T06:50:17.205Z,32.50
2022-12-01T06:52:46.552Z,32.20
2022-12-01T06:55:14.861Z,34.47
2022-12-01T06:57:43.238Z,35.05
2022-12-01T07:00:13.656Z,34.45
2022-12-01T07:02:42.020Z,41.58
2022-12-01T07:05:10.944Z,40.20
2022-12-01T07:07:39.869Z,39.92
2022-12-01T07:10:11.820Z,44.58
2022-12-01T07:12:39.664Z,34.75
2022-12-01T07:15:09.100Z,40.05
2022-12-01T07:17:37.123Z,34.45
2022-12-01T07:20:05.828Z,40.45
2022-12-01T07:22:33.636Z,41.97
2022-12-01T07:25:01.715Z,38.90
2022-12-01T07:27:32.115Z,36.72
2022-12-01T07:30:00.251Z,40.88
2022-12-01T07:32:28.038Z,35.58
2022-12-01T07:34:56.087Z,36.05
2022-12-01T07:37:23.876Z,35.22
2022-12-01T07:39:51.955Z,35.17
2022-12-01T07:42:19.792Z,33.20
2022-12-01T07:44:49.269Z,35.78
2022-12-01T07:47:17.078Z,40.22
2022-12-01T07:49:45.104Z,35.42
2022-12-01T07:52:13.048Z,30.83
2022-12-01T07:54:41.258Z,34.22
2022-12-01T07:57:09.027Z,36.40
2022-12-01T07:59:37.119Z,40.50
2022-12-01T08:02:06.576Z,33.67
2022-12-01T08:04:34.699Z,33.38
2022-12-01T08:07:02.570Z,33.50
2022-12-01T08:09:30.923Z,28.13
2022-12-01T08:11:58.703Z,29.40
2022-12-01T08:14:26.925Z,38.75
2022-12-01T08:16:54.671Z,35.92
2022-12-01T08:19:25.837Z,40.35
2022-12-01T08:21:53.906Z,49.92
2022-12-01T08:24:22.082Z,39.30
2022-12-01T08:26:49.756Z,45.05
2022-12-01T08:29:20.419Z,45.53
2022-12-01T08:31:48.657Z,38.42
2022-12-01T08:34:17.131Z,33.58
2022-12-01T08:36:46.387Z,32.85
2022-12-01T08:39:14.826Z,34.65
2022-12-01T08:41:42.922Z,32.13
2022-12-01T08:44:11.687Z,33.15
2022-12-01T08:46:39.886Z,29.13
2022-12-01T08:49:08.332Z,34.72
2022-12-01T08:51:37.145Z,30.77
2022-12-01T08:54:06.941Z,38.58
2022-12-01T08:56:36.911Z,44.22
2022-12-01T08:59:05.909Z,45.33
2022-12-01T09:01:34.301Z,41.28
2022-12-01T09:04:08.644Z,44.97
2022-12-01T09:06:40.747Z,41.97
2022-12-01T09:09:14.169Z,43.45
2022-12-01T09:11:43.847Z,37.38
2022-12-01T09:14:12.464Z,37.95
2022-12-01T09:16:41.208Z,37.60
2022-12-01T09:19:12.976Z,39.88
2022-12-01T09:21:42.690Z,45.50
2022-12-01T09:24:13.801Z,40.35
2022-12-01T09:26:41.988Z,41.95
2022-12-01T09:29:13.476Z,38.30
2022-12-01T09:31:42.591Z,39.23
2022-12-01T09:34:14.108Z,34.95
2022-12-01T09:36:42.082Z,32.95
2022-12-01T09:39:15.116Z,31.77
2022-12-01T09:41:46.948Z,36.63
2022-12-01T09:44:22.711Z,39.50
2022-12-01T09:46:54.027Z,50.65
2022-12-01T09:49:24.896Z,41.75
2022-12-01T09:51:54.955Z,42.45
2022-12-01T09:54:24.352Z,34.88
2022-12-01T09:56:55.415Z,36.45
2022-12-01T09:59:27.463Z,42.45
2022-12-01T10:01:59.414Z,41.75
2022-12-01T10:07:01.649Z,45.40
2022-12-01T10:09:40.413Z,52.38
2022-12-01T10:12:16.182Z,34.13
2022-12-01T10:14:46.316Z,39.10
2022-12-01T10:17:23.831Z,40.97
2022-12-01T10:20:00.981Z,33.85
2022-12-01T10:22:50.830Z,31.70
2022-12-01T10:25:23.850Z,30.60
2022-12-01T10:28:07.840Z,30.98
2022-12-01T10:30:42.285Z,37.42
2022-12-01T10:33:20.816Z,40.92
2022-12-01T10:35:49.065Z,39.92
2022-12-01T10:38:26.613Z,34.92
2022-12-01T10:40:59.639Z,24.95
2022-12-01T10:43:35.841Z,33.53
2022-12-01T10:46:32.671Z,31.02
2022-12-01T10:49:09.973Z,36.92
2022-12-01T10:51:49.438Z,32.58
2022-12-01T10:54:18.437Z,35.75
2022-12-01T10:56:49.945Z,32.95
2022-12-01T10:59:27.241Z,27.85
2022-12-01T11:01:57.717Z,34.30
2022-12-01T11:04:35.998Z,31.73
2022-12-01T11:07:05.528Z,32.03
2022-12-01T11:09:33.904Z,34.85
2022-12-01T11:12:05.569Z,33.17
2022-12-01T11:14:43.708Z,29.73
2022-12-01T11:17:30.463Z,38.90
2022-12-01T11:19:59.030Z,42.20
2022-12-01T11:22:31.876Z,41.90
2022-12-01T11:25:02.611Z,40.10
2022-12-01T11:27:35.933Z,35.88
2022-12-01T11:30:08.359Z,31.58
2022-12-01T11:32:39.487Z,41.90
2022-12-01T11:35:19.256Z,46.45
2022-12-01T11:38:13.180Z,47.50
2022-12-01T11:40:47.696Z,52.05
2022-12-01T11:48:24.078Z,43.80
2022-12-01T11:51:04.305Z,42.05
2022-12-01T11:53:34.019Z,43.90
2022-12-01T11:56:17.990Z,44.75
2022-12-01T11:58:48.698Z,41.17
2022-12-01T12:01:27.056Z,48.72
2022-12-01T12:04:04.728Z,55.13
2022-12-01T12:06:40.195Z,49.10
2022-12-01T12:09:24.354Z,51.25
2022-12-01T12:12:02.546Z,51.78
2022-12-01T12:14:42.669Z,58.58
2022-12-01T12:17:20.829Z,50.40
2022-12-01T12:20:18.407Z,53.50
2022-12-01T12:22:56.867Z,47.22
2022-12-01T12:25:32.688Z,50.92
2022-12-01T12:28:14.700Z,50.38
2022-12-01T12:30:50.214Z,50.73
2022-12-01T12:33:35.462Z,53.45
2022-12-01T12:36:11.418Z,55.00
2022-12-01T12:38:50.662Z,54.55
2022-12-01T12:41:29.458Z,59.83
2022-12-01T12:44:20.695Z,49.75
2022-12-01T12:46:58.715Z,54.28
2022-12-01T12:49:41.603Z,52.20
2022-12-01T12:54:49.960Z,45.33
2022-12-01T12:57:26.653Z,49.58
2022-12-01T13:00:00.097Z,52.97
2022-12-01T13:02:34.322Z,52.67
2022-12-01T13:05:10.325Z,52.28
2022-12-01T13:07:43.371Z,58.70
2022-12-01T13:10:22.777Z,56.58
2022-12-01T13:12:58.234Z,50.08
2022-12-01T13:15:28.141Z,50.90
2022-12-01T13:18:00.220Z,63.00
2022-12-01T13:23:02.021Z,55.42
2022-12-01T13:25:35.580Z,61.13
2022-12-01T13:28:06.793Z,65.65
2022-12-01T13:30:35.034Z,55.90
2022-12-01T13:33:05.190Z,58.60
2022-12-01T13:35:35.714Z,52.08
2022-12-01T13:38:24.729Z,64.75
2022-12-01T13:41:11.672Z,55.70
2022-12-01T13:43:50.305Z,56.53
2022-12-01T13:46:23.591Z,61.38
2022-12-01T13:48:53.591Z,65.72
2022-12-01T13:51:22.206Z,55.03
2022-12-01T13:54:28.963Z,62.03
2022-12-01T13:57:05.501Z,56.33
2022-12-01T14:00:06.660Z,58.03
2022-12-01T14:02:36.974Z,70.47
2022-12-01T14:05:38.728Z,71.88
2022-12-01T14:08:21.273Z,65.00
2022-12-01T14:10:55.523Z,74.03
2022-12-01T14:13:26.664Z,62.92
2022-12-01T14:15:56.759Z,62.28
2022-12-01T14:18:36.707Z,58.28
2022-12-01T14:21:07.124Z,67.40
2022-12-01T14:23:37.482Z,66.45
2022-12-01T14:26:13.342Z,61.40
2022-12-01T14:29:18.471Z,67.93
2022-12-01T14:32:20.276Z,62.30
2022-12-01T14:34:54.801Z,62.15
2022-12-01T14:37:25.803Z,64.88
2022-12-01T14:39:59.386Z,70.87
2022-12-01T14:42:47.293Z,71.05
2022-12-01T14:45:19.980Z,64.65
2022-12-01T14:50:25.404Z,67.38
2022-12-01T14:52:57.464Z,66.93
2022-12-01T14:55:30.261Z,69.07
2022-12-01T15:00:37.388Z,68.93
2022-12-01T15:03:10.471Z,69.40
2022-12-01T15:05:41.168Z,67.32
2022-12-01T15:08:40.955Z,67.03
2022-12-01T15:11:11.216Z,58.78
2022-12-01T15:13:48.582Z,53.63
2022-12-01T15:16:19.765Z,50.28
2022-12-01T15:18:49.420Z,60.75
2022-12-01T15:21:20.654Z,57.10
2022-12-01T15:24:00.004Z,45.15
2022-12-01T15:26:30.907Z,56.33
2022-12-01T15:29:13.771Z,46.42
2022-12-01T15:31:43.761Z,59.55
2022-12-01T15:34:17.784Z,59.22
2022-12-01T15:36:47.003Z,58.22
2022-12-01T15:39:17.528Z,56.80
2022-12-01T15:41:48.127Z,55.22
2022-12-01T15:44:22.263Z,54.47
2022-12-01T15:46:50.778Z,50.60
2022-12-01T15:49:27.341Z,55.58
2022-12-01T15:51:57.104Z,49.65
2022-12-01T15:54:27.360Z,57.80
2022-12-01T15:56:58.623Z,51.28
2022-12-01T15:59:30.845Z,53.65
2022-12-01T16:04:32.212Z,53.83
2022-12-01T16:07:04.823Z,44.83
2022-12-01T16:12:24.271Z,53.72
2022-12-01T16:14:58.123Z,49.45
2022-12-01T16:17:26.609Z,54.78
2022-12-01T16:20:19.229Z,49.42
2022-12-01T16:22:49.913Z,51.00
2022-12-01T16:25:29.527Z,47.45
2022-12-01T16:27:58.887Z,54.30
2022-12-01T16:30:31.321Z,57.28
2022-12-01T16:33:03.940Z,60.42
2022-12-01T16:35:34.831Z,63.05
2022-12-01T16:38:12.619Z,58.35
2022-12-01T16:40:42.231Z,66.30
2022-12-01T16:43:14.657Z,67.95
2022-12-01T16:45:43.291Z,57.70
2022-12-01T16:48:11.621Z,59.88
2022-12-01T16:50:41.299Z,60.35
2022-12-01T16:53:10.560Z,58.53
2022-12-01T16:55:43.154Z,53.38
2022-12-01T16:58:11.531Z,48.85
2022-12-01T17:00:39.734Z,50.00
2022-12-01T17:03:08.259Z,39.35
2022-12-01T17:05:36.327Z,52.00
2022-12-01T17:08:06.310Z,45.78
2022-12-01T17:10:34.295Z,43.95
2022-12-01T17:13:02.376Z,41.28
2022-12-01T17:15:30.275Z,48.75
2022-12-01T17:17:58.370Z,49.75
2022-12-01T17:20:26.300Z,50.58
2022-12-01T17:22:54.639Z,50.33
2022-12-01T17:25:25.169Z,48.72
2022-12-01T17:27:53.229Z,43.90
2022-12-01T17:30:21.235Z,40.88
2022-12-01T17:32:49.224Z,38.75
2022-12-01T17:35:17.328Z,37.10
2022-12-01T17:37:45.438Z,43.83
2022-12-01T17:40:14.765Z,37.20
2022-12-01T17:42:50.298Z,42.05
2022-12-01T17:45:19.128Z,41.53
2022-12-01T17:47:47.386Z,41.67
2022-12-01T17:50:15.513Z,38.92
2022-12-01T17:52:43.630Z,44.38
2022-12-01T17:55:11.470Z,42.60
2022-12-01T17:57:39.538Z,49.85
2022-12-01T18:00:10.279Z,50.03
2022-12-01T18:02:38.636Z,50.92
2022-12-01T18:05:07.601Z,60.78
2022-12-01T18:07:35.738Z,50.55
2022-12-01T18:10:03.773Z,53.50
2022-12-01T18:12:31.791Z,50.58
2022-12-01T18:14:59.655Z,58.28
2022-12-01T18:17:29.207Z,52.50
2022-12-01T18:19:56.995Z,46.60
2022-12-01T18:22:25.031Z,52.25
2022-12-01T18:24:53.226Z,51.38
2022-12-01T18:27:21.374Z,47.63
2022-12-01T18:29:49.203Z,50.00
2022-12-01T18:32:17.675Z,45.30
2022-12-01T18:34:46.818Z,53.90
2022-12-01T18:37:15.280Z,52.55
2022-12-01T18:39:43.298Z,50.75
2022-12-01T18:42:12.184Z,48.35
2022-12-01T18:44:40.031Z,45.00
2022-12-01T18:47:09.765Z,51.58
2022-12-01T18:49:37.706Z,46.03
2022-12-01T18:52:07.115Z,50.60
2022-12-01T18:54:35.807Z,57.83
2022-12-01T18:57:04.072Z,43.85
2022-12-01T18:59:31.992Z,54.00
2022-12-01T19:02:00.432Z,56.30
2022-12-01T19:04:28.393Z,56.25
2022-12-01T19:06:56.516Z,51.45
2022-12-01T19:09:26.240Z,47.17
2022-12-01T19:11:59.806Z,56.30
2022-12-01T19:14:29.230Z,55.10
2022-12-01T19:16:57.869Z,54.92
2022-12-01T19:19:26.344Z,56.05
2022-12-01T19:21:54.731Z,49.40
2022-12-01T19:24:22.694Z,59.08
2022-12-01T19:26:52.305Z,54.30
2022-12-01T19:29:20.486Z,65.22
2022-12-01T19:31:48.707Z,53.42
2022-12-01T19:34:17.036Z,49.85
2022-12-01T19:36:45.287Z,49.90
2022-12-01T19:39:13.278Z,89.03
2022-12-01T19:41:41.373Z,42.72
2022-12-01T19:44:11.471Z,44.72
2022-12-01T19:46:39.644Z,55.05
2022-12-01T19:49:07.632Z,56.03
2022-12-01T19:51:38.014Z,46.70
2022-12-01T19:54:07.792Z,53.75
2022-12-01T19:56:35.900Z,49.45
2022-12-01T19:59:04.852Z,59.95
2022-12-01T20:01:34.579Z,58.95
2022-12-01T20:04:02.415Z,55.95
2022-12-01T20:06:31.900Z,59.30
2022-12-01T20:09:02.066Z,58.42
2022-12-01T20:11:32.660Z,59.05
2022-12-01T20:14:00.863Z,55.67
2022-12-01T20:16:30.419Z,51.58
2022-12-01T20:19:03.007Z,61.20
2022-12-01T20:21:35.013Z,55.95
2022-12-01T20:24:04.508Z,56.80
2022-12-01T20:26:34.898Z,60.83
2022-12-01T20:29:05.804Z,61.95
2022-12-01T20:31:34.856Z,56.25
2022-12-01T20:34:07.080Z,54.20
2022-12-01T20:36:36.684Z,51.33
2022-12-01T20:39:05.510Z,62.33
2022-12-01T20:41:33.820Z,63.67
2022-12-01T20:44:06.888Z,59.03
2022-12-01T20:46:36.486Z,52.20
2022-12-01T20:49:06.258Z,55.45
2022-12-01T20:51:34.632Z,55.13
2022-12-01T20:54:27.777Z,51.20
2022-12-01T20:56:52.473Z,47.92
2022-12-01T20:59:20.526Z,80.75
2022-12-01T21:01:48.720Z,85.22
2022-12-01T21:04:18.332Z,105.22
2022-12-01T21:06:46.836Z,55.22
2022-12-01T21:09:14.956Z,50.90
2022-12-01T21:12:00.791Z,55.38
2022-12-01T21:14:31.974Z,42.97
2022-12-01T21:17:06.692Z,50.10
2022-12-01T21:19:44.664Z,52.63
2022-12-01T21:22:13.739Z,50.83
2022-12-01T21:24:44.002Z,57.08
2022-12-01T21:27:14.722Z,63.90
2022-12-01T21:29:45.852Z,51.63
2022-12-01T21:32:16.079Z,60.60
2022-12-01T21:34:46.935Z,58.22
2022-12-01T21:37:21.640Z,62.03
2022-12-01T21:39:51.006Z,65.70
2022-12-01T21:42:21.881Z,66.05
2022-12-01T21:44:50.577Z,62.92
2022-12-01T21:47:22.649Z,62.97
2022-12-01T21:49:54.114Z,61.97
2022-12-01T21:52:24.998Z,68.97
2022-12-01T21:54:53.225Z,56.50
2022-12-01T21:57:41.120Z,65.88
2022-12-01T22:00:28.523Z,63.22
2022-12-01T22:03:22.371Z,64.70
2022-12-01T22:06:21.440Z,70.88
2022-12-01T22:08:45.921Z,66.70
2022-12-01T22:11:18.794Z,65.85
2022-12-01T22:13:51.085Z,66.55
2022-12-01T22:16:21.951Z,67.60
2022-12-01T22:18:55.743Z,66.55
2022-12-01T22:21:32.806Z,65.60
2022-12-01T22:24:13.020Z,62.30
2022-12-01T22:26:47.675Z,66.85
2022-12-01T22:29:27.663Z,63.30
2022-12-01T22:32:32.604Z,66.70
2022-12-01T22:35:15.441Z,64.60
2022-12-01T22:37:47.312Z,71.75
2022-12-01T22:40:35.086Z,64.40
2022-12-01T22:43:27.485Z,64.30
2022-12-01T22:46:17.604Z,71.95
2022-12-01T22:48:47.633Z,63.28
2022-12-01T22:51:28.359Z,61.78
2022-12-01T22:54:02.469Z,65.82
2022-12-01T22:56:34.976Z,60.53
2022-12-01T22:59:11.475Z,68.00
2022-12-01T23:01:44.084Z,62.35
2022-12-01T23:04:31.204Z,62.80
2022-12-01T23:07:09.745Z,67.78
2022-12-01T23:09:42.743Z,67.63
2022-12-01T23:12:29.142Z,66.88
2022-12-01T23:14:59.469Z,68.40
2022-12-01T23:17:29.396Z,67.88
2022-12-01T23:20:15.492Z,69.13
2022-12-01T23:22:43.617Z,68.10
2022-12-01T23:25:15.392Z,68.03
2022-12-01T23:30:14.545Z,70.25
2022-12-01T23:32:42.935Z,64.93
2022-12-01T23:35:15.913Z,64.05
2022-12-01T23:37:45.720Z,67.72
2022-12-01T23:40:21.223Z,76.82
2022-12-01T23:42:49.699Z,67.72
2022-12-01T23:45:22.422Z,63.83
2022-12-01T23:47:52.323Z,68.80
2022-12-01T23:50:23.774Z,76.50
2022-12-01T23:52:52.584Z,64.63
2022-12-01T23:55:26.597Z,70.60
2022-12-01T23:57:55.337Z,75.53
